sensor_id;sensor_type;location;lat;lon;timestamp;P1;durP1;ratioP1;P2;durP2;ratioP2
20287;SDS011;10303;51.960;8.372;2022-10-16T11:25:30;0.30;;;0.30;;
20287;SDS011;10303;51.960;8.372;2022-10-16T11:30:43;2.22;;;0.52;;
20287;SDS011;10303;51.960;8.372;2022-10-16T11:33:24;1.30;;;0.70;;
20287;SDS011;10303;51.960;8.372;2022-10-16T11:36:04;9.20;;;1.58;;
20287;SDS011;10303;51.960;8.372;2022-10-16T11:39:38;0.73;;;0.50;;
20287;SDS011;10303;51.960;8.372;2022-10-16T11:56:24;0.65;;;0.60;;
20287;SDS011;10303;51.960;8.372;2022-10-16T12:01:35;0.30;;;0.30;;
20287;SDS011;10303;51.960;8.372;2022-10-16T12:04:24;0.32;;;0.32;;
20287;SDS011;10303;51.960;8.372;2022-10-16T12:07:11;0.45;;;0.45;;
20287;SDS011;10303;51.960;8.372;2022-10-16T12:09:52;1.77;;;0.60;;
20287;SDS011;10303;51.960;8.372;2022-10-16T12:12:26;1.10;;;0.40;;
20287;SDS011;10303;51.960;8.372;2022-10-16T12:15:23;0.40;;;0.40;;
20287;SDS011;10303;51.960;8.372;2022-10-16T12:17:56;0.93;;;0.50;;
20287;SDS011;10303;51.960;8.372;2022-10-16T12:20:27;0.55;;;0.40;;
20287;SDS011;10303;51.960;8.372;2022-10-16T12:22:56;0.40;;;0.40;;
20287;SDS011;10303;51.960;8.372;2022-10-16T12:28:26;0.50;;;0.50;;
20287;SDS011;10303;51.960;8.372;2022-10-16T12:30:55;0.85;;;0.60;;
20287;SDS011;10303;51.960;8.372;2022-10-16T12:33:35;1.58;;;0.80;;
20287;SDS011;10303;51.960;8.372;2022-10-16T12:36:13;1.23;;;0.70;;
20287;SDS011;10303;51.960;8.372;2022-10-16T12:38:56;0.82;;;0.73;;
20287;SDS011;10303;51.960;8.372;2022-10-16T12:41:24;0.70;;;0.70;;
20287;SDS011;10303;51.960;8.372;2022-10-16T12:44:02;1.77;;;1.13;;
20287;SDS011;10303;51.960;8.372;2022-10-16T12:51:41;0.90;;;0.73;;
20287;SDS011;10303;51.960;8.372;2022-10-16T13:00:04;0.60;;;0.60;;
20287;SDS011;10303;51.960;8.372;2022-10-16T13:03:01;0.60;;;0.60;;
20287;SDS011;10303;51.960;8.372;2022-10-16T13:12:44;0.88;;;0.88;;
20287;SDS011;10303;51.960;8.372;2022-10-16T13:30:25;0.70;;;0.70;;
20287;SDS011;10303;51.960;8.372;2022-10-16T13:33:04;0.90;;;0.90;;
20287;SDS011;10303;51.960;8.372;2022-10-16T13:35:57;0.68;;;0.68;;
20287;SDS011;10303;51.960;8.372;2022-10-16T13:38:27;1.23;;;0.80;;
20287;SDS011;10303;51.960;8.372;2022-10-16T13:41:02;0.80;;;0.80;;
20287;SDS011;10303;51.960;8.372;2022-10-16T13:46:05;1.10;;;1.00;;
20287;SDS011;10303;51.960;8.372;2022-10-16T13:48:43;0.82;;;0.80;;
20287;SDS011;10303;51.960;8.372;2022-10-16T13:51:22;0.70;;;0.70;;
20287;SDS011;10303;51.960;8.372;2022-10-16T13:53:50;0.90;;;0.88;;
20287;SDS011;10303;51.960;8.372;2022-10-16T13:56:19;1.65;;;1.05;;
20287;SDS011;10303;51.960;8.372;2022-10-16T14:01:50;1.13;;;0.90;;
20287;SDS011;10303;51.960;8.372;2022-10-16T14:04:23;12.02;;;1.00;;
20287;SDS011;10303;51.960;8.372;2022-10-16T14:06:58;1.83;;;1.17;;
20287;SDS011;10303;51.960;8.372;2022-10-16T14:09:26;1.00;;;1.00;;
20287;SDS011;10303;51.960;8.372;2022-10-16T14:11:59;2.33;;;0.90;;
20287;SDS011;10303;51.960;8.372;2022-10-16T14:14:45;1.35;;;1.10;;
20287;SDS011;10303;51.960;8.372;2022-10-16T14:17:20;1.25;;;0.90;;
20287;SDS011;10303;51.960;8.372;2022-10-16T14:19:53;0.85;;;0.85;;
20287;SDS011;10303;51.960;8.372;2022-10-16T14:33:39;0.98;;;0.98;;
20287;SDS011;10303;51.960;8.372;2022-10-16T14:36:10;1.63;;;0.80;;
20287;SDS011;10303;51.960;8.372;2022-10-16T14:38:54;1.00;;;0.90;;
20287;SDS011;10303;51.960;8.372;2022-10-16T14:41:24;0.68;;;0.68;;
20287;SDS011;10303;51.960;8.372;2022-10-16T14:43:54;0.80;;;0.80;;
20287;SDS011;10303;51.960;8.372;2022-10-16T14:46:31;1.30;;;1.00;;
20287;SDS011;10303;51.960;8.372;2022-10-16T14:49:03;1.30;;;0.80;;
20287;SDS011;10303;51.960;8.372;2022-10-16T14:51:51;0.60;;;0.60;;
20287;SDS011;10303;51.960;8.372;2022-10-16T14:54:19;0.60;;;0.60;;
20287;SDS011;10303;51.960;8.372;2022-10-16T14:59:17;0.93;;;0.80;;
20287;SDS011;10303;51.960;8.372;2022-10-16T15:04:53;0.40;;;0.40;;
20287;SDS011;10303;51.960;8.372;2022-10-16T15:07:19;0.47;;;0.47;;
20287;SDS011;10303;51.960;8.372;2022-10-16T15:09:47;0.60;;;0.60;;
20287;SDS011;10303;51.960;8.372;2022-10-16T15:12:14;0.50;;;0.50;;
20287;SDS011;10303;51.960;8.372;2022-10-16T15:14:40;0.50;;;0.50;;
20287;SDS011;10303;51.960;8.372;2022-10-16T15:17:08;0.57;;;0.47;;
20287;SDS011;10303;51.960;8.372;2022-10-16T15:19:36;4.43;;;1.33;;
20287;SDS011;10303;51.960;8.372;2022-10-16T15:22:02;0.60;;;0.60;;
20287;SDS011;10303;51.960;8.372;2022-10-16T15:24:28;0.55;;;0.55;;
20287;SDS011;10303;51.960;8.372;2022-10-16T15:26:54;0.93;;;0.63;;
20287;SDS011;10303;51.960;8.372;2022-10-16T15:29:20;0.80;;;0.80;;
20287;SDS011;10303;51.960;8.372;2022-10-16T15:31:46;0.60;;;0.60;;
20287;SDS011;10303;51.960;8.372;2022-10-16T15:34:13;0.90;;;0.57;;
20287;SDS011;10303;51.960;8.372;2022-10-16T15:36:39;0.60;;;0.60;;
20287;SDS011;10303;51.960;8.372;2022-10-16T15:39:13;2.70;;;0.60;;
20287;SDS011;10303;51.960;8.372;2022-10-16T15:41:42;0.80;;;0.50;;
20287;SDS011;10303;51.960;8.372;2022-10-16T15:44:10;1.63;;;0.55;;
20287;SDS011;10303;51.960;8.372;2022-10-16T15:46:36;0.45;;;0.45;;
20287;SDS011;10303;51.960;8.372;2022-10-16T15:49:03;0.70;;;0.70;;
20287;SDS011;10303;51.960;8.372;2022-10-16T15:51:32;0.52;;;0.52;;
20287;SDS011;10303;51.960;8.372;2022-10-16T15:54:00;0.60;;;0.40;;
20287;SDS011;10303;51.960;8.372;2022-10-16T15:56:29;0.47;;;0.47;;
20287;SDS011;10303;51.960;8.372;2022-10-16T15:58:59;0.40;;;0.40;;
20287;SDS011;10303;51.960;8.372;2022-10-16T16:01:27;0.50;;;0.50;;
20287;SDS011;10303;51.960;8.372;2022-10-16T16:03:57;0.77;;;0.55;;
20287;SDS011;10303;51.960;8.372;2022-10-16T16:06:23;0.38;;;0.38;;
20287;SDS011;10303;51.960;8.372;2022-10-16T16:08:56;0.55;;;0.55;;
20287;SDS011;10303;51.960;8.372;2022-10-16T16:11:26;0.40;;;0.40;;
20287;SDS011;10303;51.960;8.372;2022-10-16T16:13:52;0.52;;;0.52;;
20287;SDS011;10303;51.960;8.372;2022-10-16T16:16:22;1.60;;;0.73;;
20287;SDS011;10303;51.960;8.372;2022-10-16T16:18:52;0.47;;;0.47;;
20287;SDS011;10303;51.960;8.372;2022-10-16T16:21:21;0.63;;;0.63;;
20287;SDS011;10303;51.960;8.372;2022-10-16T16:23:47;1.10;;;0.60;;
20287;SDS011;10303;51.960;8.372;2022-10-16T16:28:52;0.60;;;0.60;;
20287;SDS011;10303;51.960;8.372;2022-10-16T16:31:23;1.30;;;0.60;;
20287;SDS011;10303;51.960;8.372;2022-10-16T16:33:51;4.32;;;0.70;;
20287;SDS011;10303;51.960;8.372;2022-10-16T16:36:18;0.68;;;0.55;;
20287;SDS011;10303;51.960;8.372;2022-10-16T16:38:45;1.48;;;0.65;;
20287;SDS011;10303;51.960;8.372;2022-10-16T16:41:13;0.52;;;0.52;;
20287;SDS011;10303;51.960;8.372;2022-10-16T16:43:45;0.60;;;0.50;;
20287;SDS011;10303;51.960;8.372;2022-10-16T16:46:12;3.30;;;0.70;;
20287;SDS011;10303;51.960;8.372;2022-10-16T16:48:40;0.43;;;0.40;;
20287;SDS011;10303;51.960;8.372;2022-10-16T16:51:08;0.97;;;0.60;;
20287;SDS011;10303;51.960;8.372;2022-10-16T16:53:41;0.85;;;0.60;;
20287;SDS011;10303;51.960;8.372;2022-10-16T16:56:10;0.60;;;0.57;;
20287;SDS011;10303;51.960;8.372;2022-10-16T16:58:36;0.70;;;0.60;;
20287;SDS011;10303;51.960;8.372;2022-10-16T17:01:02;1.80;;;0.50;;
20287;SDS011;10303;51.960;8.372;2022-10-16T17:03:33;5.50;;;0.53;;
20287;SDS011;10303;51.960;8.372;2022-10-16T17:06:01;0.40;;;0.40;;
20287;SDS011;10303;51.960;8.372;2022-10-16T17:08:31;2.23;;;0.53;;
20287;SDS011;10303;51.960;8.372;2022-10-16T17:11:00;0.70;;;0.70;;
20287;SDS011;10303;51.960;8.372;2022-10-16T17:13:28;1.07;;;0.60;;
20287;SDS011;10303;51.960;8.372;2022-10-16T17:16:02;0.97;;;0.60;;
20287;SDS011;10303;51.960;8.372;2022-10-16T17:18:31;0.60;;;0.60;;
20287;SDS011;10303;51.960;8.372;2022-10-16T17:20:59;0.70;;;0.50;;
20287;SDS011;10303;51.960;8.372;2022-10-16T17:23:31;0.63;;;0.63;;
20287;SDS011;10303;51.960;8.372;2022-10-16T17:26:06;0.70;;;0.70;;
20287;SDS011;10303;51.960;8.372;2022-10-16T17:28:35;0.60;;;0.60;;
20287;SDS011;10303;51.960;8.372;2022-10-16T17:31:20;0.83;;;0.80;;
20287;SDS011;10303;51.960;8.372;2022-10-16T17:33:49;1.07;;;0.80;;
20287;SDS011;10303;51.960;8.372;2022-10-16T17:36:16;0.80;;;0.80;;
20287;SDS011;10303;51.960;8.372;2022-10-16T17:38:43;0.90;;;0.80;;
20287;SDS011;10303;51.960;8.372;2022-10-16T17:41:13;0.83;;;0.83;;
20287;SDS011;10303;51.960;8.372;2022-10-16T17:43:49;0.70;;;0.70;;
20287;SDS011;10303;51.960;8.372;2022-10-16T17:46:17;0.70;;;0.70;;
20287;SDS011;10303;51.960;8.372;2022-10-16T17:48:48;0.60;;;0.60;;
20287;SDS011;10303;51.960;8.372;2022-10-16T17:51:20;0.70;;;0.53;;
20287;SDS011;10303;51.960;8.372;2022-10-16T17:53:59;6.23;;;0.90;;
20287;SDS011;10303;51.960;8.372;2022-10-16T17:56:26;0.53;;;0.53;;
20287;SDS011;10303;51.960;8.372;2022-10-16T17:58:54;1.80;;;0.60;;
20287;SDS011;10303;51.960;8.372;2022-10-16T18:01:25;0.80;;;0.80;;
20287;SDS011;10303;51.960;8.372;2022-10-16T18:04:03;0.93;;;0.90;;
20287;SDS011;10303;51.960;8.372;2022-10-16T18:06:34;1.00;;;1.00;;
20287;SDS011;10303;51.960;8.372;2022-10-16T18:09:02;0.90;;;0.90;;
20287;SDS011;10303;51.960;8.372;2022-10-16T18:11:30;1.20;;;1.10;;
20287;SDS011;10303;51.960;8.372;2022-10-16T18:13:57;0.83;;;0.83;;
20287;SDS011;10303;51.960;8.372;2022-10-16T18:16:26;1.63;;;1.20;;
20287;SDS011;10303;51.960;8.372;2022-10-16T18:18:54;1.10;;;1.00;;
20287;SDS011;10303;51.960;8.372;2022-10-16T18:21:22;1.17;;;0.93;;
20287;SDS011;10303;51.960;8.372;2022-10-16T18:23:54;1.30;;;1.13;;
20287;SDS011;10303;51.960;8.372;2022-10-16T18:26:22;2.13;;;1.00;;
20287;SDS011;10303;51.960;8.372;2022-10-16T18:28:53;1.97;;;1.63;;
20287;SDS011;10303;51.960;8.372;2022-10-16T18:31:21;1.30;;;1.20;;
20287;SDS011;10303;51.960;8.372;2022-10-16T18:33:50;2.60;;;1.20;;
20287;SDS011;10303;51.960;8.372;2022-10-16T18:36:17;2.30;;;1.30;;
20287;SDS011;10303;51.960;8.372;2022-10-16T18:38:50;1.40;;;0.97;;
20287;SDS011;10303;51.960;8.372;2022-10-16T18:41:17;2.37;;;1.03;;
20287;SDS011;10303;51.960;8.372;2022-10-16T18:43:43;1.10;;;0.80;;
20287;SDS011;10303;51.960;8.372;2022-10-16T18:46:11;1.00;;;0.90;;
20287;SDS011;10303;51.960;8.372;2022-10-16T18:48:41;2.53;;;1.13;;
20287;SDS011;10303;51.960;8.372;2022-10-16T18:51:16;1.13;;;1.10;;
20287;SDS011;10303;51.960;8.372;2022-10-16T18:53:51;1.30;;;1.20;;
20287;SDS011;10303;51.960;8.372;2022-10-16T18:56:22;1.37;;;1.27;;
20287;SDS011;10303;51.960;8.372;2022-10-16T18:58:49;1.37;;;1.13;;
20287;SDS011;10303;51.960;8.372;2022-10-16T19:01:23;2.70;;;1.23;;
20287;SDS011;10303;51.960;8.372;2022-10-16T19:03:56;1.43;;;1.33;;
20287;SDS011;10303;51.960;8.372;2022-10-16T19:06:29;1.20;;;1.10;;
20287;SDS011;10303;51.960;8.372;2022-10-16T19:09:00;1.80;;;1.20;;
20287;SDS011;10303;51.960;8.372;2022-10-16T19:11:27;1.50;;;1.40;;
20287;SDS011;10303;51.960;8.372;2022-10-16T19:13:55;1.23;;;1.07;;
20287;SDS011;10303;51.960;8.372;2022-10-16T19:16:23;1.20;;;0.97;;
20287;SDS011;10303;51.960;8.372;2022-10-16T19:18:56;1.40;;;1.03;;
20287;SDS011;10303;51.960;8.372;2022-10-16T19:21:25;1.37;;;1.03;;
20287;SDS011;10303;51.960;8.372;2022-10-16T19:23:57;1.20;;;1.03;;
20287;SDS011;10303;51.960;8.372;2022-10-16T19:26:27;3.97;;;1.20;;
20287;SDS011;10303;51.960;8.372;2022-10-16T19:28:56;1.20;;;1.10;;
20287;SDS011;10303;51.960;8.372;2022-10-16T19:31:26;1.20;;;1.10;;
20287;SDS011;10303;51.960;8.372;2022-10-16T19:33:54;1.00;;;1.00;;
20287;SDS011;10303;51.960;8.372;2022-10-16T19:36:26;1.10;;;1.00;;
20287;SDS011;10303;51.960;8.372;2022-10-16T19:39:06;2.43;;;0.90;;
20287;SDS011;10303;51.960;8.372;2022-10-16T19:41:38;2.47;;;1.00;;
20287;SDS011;10303;51.960;8.372;2022-10-16T19:44:06;0.83;;;0.83;;
20287;SDS011;10303;51.960;8.372;2022-10-16T19:46:35;0.83;;;0.83;;
20287;SDS011;10303;51.960;8.372;2022-10-16T19:49:03;3.13;;;0.87;;
20287;SDS011;10303;51.960;8.372;2022-10-16T19:51:32;0.93;;;0.87;;
20287;SDS011;10303;51.960;8.372;2022-10-16T19:53:59;0.73;;;0.73;;
20287;SDS011;10303;51.960;8.372;2022-10-16T19:56:32;1.97;;;0.90;;
20287;SDS011;10303;51.960;8.372;2022-10-16T19:59:00;1.47;;;1.13;;
20287;SDS011;10303;51.960;8.372;2022-10-16T20:01:29;4.57;;;0.93;;
20287;SDS011;10303;51.960;8.372;2022-10-16T20:03:57;0.97;;;0.97;;
20287;SDS011;10303;51.960;8.372;2022-10-16T20:06:23;3.60;;;1.00;;
20287;SDS011;10303;51.960;8.372;2022-10-16T20:08:51;0.83;;;0.70;;
20287;SDS011;10303;51.960;8.372;2022-10-16T20:11:21;1.00;;;1.00;;
20287;SDS011;10303;51.960;8.372;2022-10-16T20:13:54;0.93;;;0.83;;
20287;SDS011;10303;51.960;8.372;2022-10-16T20:16:21;3.47;;;1.03;;
20287;SDS011;10303;51.960;8.372;2022-10-16T20:18:50;4.73;;;0.80;;
20287;SDS011;10303;51.960;8.372;2022-10-16T20:21:27;1.50;;;1.00;;
20287;SDS011;10303;51.960;8.372;2022-10-16T20:23:59;0.70;;;0.70;;
20287;SDS011;10303;51.960;8.372;2022-10-16T20:26:29;0.80;;;0.80;;
20287;SDS011;10303;51.960;8.372;2022-10-16T20:28:56;0.93;;;0.73;;
20287;SDS011;10303;51.960;8.372;2022-10-16T20:31:23;1.23;;;1.03;;
20287;SDS011;10303;51.960;8.372;2022-10-16T20:33:52;1.73;;;0.90;;
20287;SDS011;10303;51.960;8.372;2022-10-16T20:36:21;0.90;;;0.90;;
20287;SDS011;10303;51.960;8.372;2022-10-16T20:38:49;2.60;;;1.07;;
20287;SDS011;10303;51.960;8.372;2022-10-16T20:41:17;1.00;;;1.00;;
20287;SDS011;10303;51.960;8.372;2022-10-16T20:43:46;1.20;;;0.90;;
20287;SDS011;10303;51.960;8.372;2022-10-16T20:46:15;1.30;;;1.20;;
20287;SDS011;10303;51.960;8.372;2022-10-16T20:48:45;1.60;;;0.93;;
20287;SDS011;10303;51.960;8.372;2022-10-16T20:51:19;1.17;;;1.07;;
20287;SDS011;10303;51.960;8.372;2022-10-16T20:53:57;1.37;;;1.27;;
20287;SDS011;10303;51.960;8.372;2022-10-16T20:56:26;0.90;;;0.90;;
20287;SDS011;10303;51.960;8.372;2022-10-16T20:58:55;1.10;;;0.80;;
20287;SDS011;10303;51.960;8.372;2022-10-16T21:01:23;1.27;;;0.90;;
20287;SDS011;10303;51.960;8.372;2022-10-16T21:03:55;0.70;;;0.70;;
20287;SDS011;10303;51.960;8.372;2022-10-16T21:06:25;0.80;;;0.80;;
20287;SDS011;10303;51.960;8.372;2022-10-16T21:08:52;0.90;;;0.80;;
20287;SDS011;10303;51.960;8.372;2022-10-16T21:11:19;1.03;;;0.87;;
20287;SDS011;10303;51.960;8.372;2022-10-16T21:13:51;0.97;;;0.87;;
20287;SDS011;10303;51.960;8.372;2022-10-16T21:16:20;0.70;;;0.70;;
20287;SDS011;10303;51.960;8.372;2022-10-16T21:18:47;0.70;;;0.70;;
20287;SDS011;10303;51.960;8.372;2022-10-16T21:21:24;1.00;;;0.90;;
20287;SDS011;10303;51.960;8.372;2022-10-16T21:23:51;0.90;;;0.90;;
20287;SDS011;10303;51.960;8.372;2022-10-16T21:26:20;0.50;;;0.50;;
20287;SDS011;10303;51.960;8.372;2022-10-16T21:28:47;0.70;;;0.70;;
20287;SDS011;10303;51.960;8.372;2022-10-16T21:31:14;0.70;;;0.70;;
20287;SDS011;10303;51.960;8.372;2022-10-16T21:33:43;0.73;;;0.73;;
20287;SDS011;10303;51.960;8.372;2022-10-16T21:36:11;1.23;;;0.90;;
20287;SDS011;10303;51.960;8.372;2022-10-16T21:38:45;0.73;;;0.73;;
20287;SDS011;10303;51.960;8.372;2022-10-16T21:41:14;2.20;;;0.80;;
20287;SDS011;10303;51.960;8.372;2022-10-16T21:43:46;4.20;;;1.03;;
20287;SDS011;10303;51.960;8.372;2022-10-16T21:46:14;1.17;;;1.10;;
20287;SDS011;10303;51.960;8.372;2022-10-16T21:48:42;0.70;;;0.67;;
20287;SDS011;10303;51.960;8.372;2022-10-16T21:51:08;1.13;;;1.03;;
20287;SDS011;10303;51.960;8.372;2022-10-16T21:53:36;0.80;;;0.70;;
20287;SDS011;10303;51.960;8.372;2022-10-16T21:56:03;0.57;;;0.57;;
20287;SDS011;10303;51.960;8.372;2022-10-16T21:58:36;1.30;;;0.80;;
20287;SDS011;10303;51.960;8.372;2022-10-16T22:01:06;0.80;;;0.80;;
20287;SDS011;10303;51.960;8.372;2022-10-16T22:03:38;0.63;;;0.63;;
20287;SDS011;10303;51.960;8.372;2022-10-16T22:06:05;0.57;;;0.57;;
20287;SDS011;10303;51.960;8.372;2022-10-16T22:08:33;0.80;;;0.60;;
20287;SDS011;10303;51.960;8.372;2022-10-16T22:11:04;0.50;;;0.50;;
20287;SDS011;10303;51.960;8.372;2022-10-16T22:13:34;1.00;;;0.80;;
20287;SDS011;10303;51.960;8.372;2022-10-16T22:16:01;0.70;;;0.60;;
20287;SDS011;10303;51.960;8.372;2022-10-16T22:18:28;0.80;;;0.63;;
20287;SDS011;10303;51.960;8.372;2022-10-16T22:20:55;0.60;;;0.60;;
20287;SDS011;10303;51.960;8.372;2022-10-16T22:23:22;0.70;;;0.70;;
20287;SDS011;10303;51.960;8.372;2022-10-16T22:25:49;0.50;;;0.50;;
20287;SDS011;10303;51.960;8.372;2022-10-16T22:28:15;0.80;;;0.60;;
20287;SDS011;10303;51.960;8.372;2022-10-16T22:30:44;0.60;;;0.60;;
20287;SDS011;10303;51.960;8.372;2022-10-16T22:33:10;0.50;;;0.50;;
20287;SDS011;10303;51.960;8.372;2022-10-16T22:35:37;0.50;;;0.50;;
20287;SDS011;10303;51.960;8.372;2022-10-16T22:38:05;2.83;;;0.67;;
20287;SDS011;10303;51.960;8.372;2022-10-16T22:40:32;0.57;;;0.57;;
20287;SDS011;10303;51.960;8.372;2022-10-16T22:43:02;0.60;;;0.60;;
20287;SDS011;10303;51.960;8.372;2022-10-16T22:45:34;0.60;;;0.60;;
20287;SDS011;10303;51.960;8.372;2022-10-16T22:48:01;3.63;;;0.70;;
20287;SDS011;10303;51.960;8.372;2022-10-16T22:50:28;0.80;;;0.80;;
20287;SDS011;10303;51.960;8.372;2022-10-16T22:52:55;1.03;;;0.77;;
20287;SDS011;10303;51.960;8.372;2022-10-16T22:55:21;0.50;;;0.50;;
20287;SDS011;10303;51.960;8.372;2022-10-16T22:57:47;0.80;;;0.60;;
20287;SDS011;10303;51.960;8.372;2022-10-16T23:00:15;1.57;;;0.63;;
20287;SDS011;10303;51.960;8.372;2022-10-16T23:02:44;0.60;;;0.60;;
20287;SDS011;10303;51.960;8.372;2022-10-16T23:05:10;0.60;;;0.60;;
20287;SDS011;10303;51.960;8.372;2022-10-16T23:07:37;0.60;;;0.60;;
20287;SDS011;10303;51.960;8.372;2022-10-16T23:10:04;0.60;;;0.60;;
20287;SDS011;10303;51.960;8.372;2022-10-16T23:12:33;0.53;;;0.47;;
20287;SDS011;10303;51.960;8.372;2022-10-16T23:15:00;0.87;;;0.80;;
20287;SDS011;10303;51.960;8.372;2022-10-16T23:17:29;0.67;;;0.67;;
20287;SDS011;10303;51.960;8.372;2022-10-16T23:19:55;0.50;;;0.50;;
20287;SDS011;10303;51.960;8.372;2022-10-16T23:22:21;0.60;;;0.60;;
20287;SDS011;10303;51.960;8.372;2022-10-16T23:24:47;0.93;;;0.60;;
20287;SDS011;10303;51.960;8.372;2022-10-16T23:27:13;0.50;;;0.50;;
20287;SDS011;10303;51.960;8.372;2022-10-16T23:29:39;0.50;;;0.50;;
20287;SDS011;10303;51.960;8.372;2022-10-16T23:32:05;0.80;;;0.80;;
20287;SDS011;10303;51.960;8.372;2022-10-16T23:34:31;0.40;;;0.40;;
20287;SDS011;10303;51.960;8.372;2022-10-16T23:36:57;0.53;;;0.53;;
20287;SDS011;10303;51.960;8.372;2022-10-16T23:39:23;0.67;;;0.67;;
20287;SDS011;10303;51.960;8.372;2022-10-16T23:41:49;1.00;;;0.70;;
20287;SDS011;10303;51.960;8.372;2022-10-16T23:44:15;0.80;;;0.80;;
20287;SDS011;10303;51.960;8.372;2022-10-16T23:46:41;0.60;;;0.60;;
20287;SDS011;10303;51.960;8.372;2022-10-16T23:49:07;0.60;;;0.60;;
20287;SDS011;10303;51.960;8.372;2022-10-16T23:51:33;1.57;;;0.70;;
20287;SDS011;10303;51.960;8.372;2022-10-16T23:53:59;0.57;;;0.57;;
20287;SDS011;10303;51.960;8.372;2022-10-16T23:56:25;0.50;;;0.50;;
20287;SDS011;10303;51.960;8.372;2022-10-16T23:58:51;0.70;;;0.60;;
